sensor_id;sensor_type;location;lat;lon;timestamp;temperature;humidity
33955;DHT22;20233;50.804;7.126;2023-02-21T00:02:40;9.30;99.90
33955;DHT22;20233;50.804;7.126;2023-02-21T00:05:24;9.30;99.90
33955;DHT22;20233;50.804;7.126;2023-02-21T00:08:08;9.30;99.90
33955;DHT22;20233;50.804;7.126;2023-02-21T00:10:52;9.30;99.90
33955;DHT22;20233;50.804;7.126;2023-02-21T00:13:37;9.40;99.90
33955;DHT22;20233;50.804;7.126;2023-02-21T00:16:22;9.40;99.90
33955;DHT22;20233;50.804;7.126;2023-02-21T00:19:06;9.40;99.90
33955;DHT22;20233;50.804;7.126;2023-02-21T00:21:50;9.40;99.90
33955;DHT22;20233;50.804;7.126;2023-02-21T00:24:34;9.40;99.90
33955;DHT22;20233;50.804;7.126;2023-02-21T00:27:20;9.40;99.90
33955;DHT22;20233;50.804;7.126;2023-02-21T00:30:05;9.40;99.90
33955;DHT22;20233;50.804;7.126;2023-02-21T00:32:49;9.30;99.90
33955;DHT22;20233;50.804;7.126;2023-02-21T00:35:33;9.30;99.90
33955;DHT22;20233;50.804;7.126;2023-02-21T00:38:18;9.30;99.90
33955;DHT22;20233;50.804;7.126;2023-02-21T00:41:02;9.30;99.90
33955;DHT22;20233;50.804;7.126;2023-02-21T00:43:46;9.40;99.90
33955;DHT22;20233;50.804;7.126;2023-02-21T00:46:30;9.30;99.90
33955;DHT22;20233;50.804;7.126;2023-02-21T00:49:14;9.30;99.90
33955;DHT22;20233;50.804;7.126;2023-02-21T00:51:58;9.30;99.90
33955;DHT22;20233;50.804;7.126;2023-02-21T00:54:42;9.30;99.90
33955;DHT22;20233;50.804;7.126;2023-02-21T00:57:26;9.20;99.90
33955;DHT22;20233;50.804;7.126;2023-02-21T01:00:17;9.00;99.90
33955;DHT22;20233;50.804;7.126;2023-02-21T01:03:03;9.10;99.90
33955;DHT22;20233;50.804;7.126;2023-02-21T01:05:47;9.20;99.90
33955;DHT22;20233;50.804;7.126;2023-02-21T01:08:32;9.30;99.90
33955;DHT22;20233;50.804;7.126;2023-02-21T01:11:17;9.30;99.90
33955;DHT22;20233;50.804;7.126;2023-02-21T01:14:02;9.30;99.90
33955;DHT22;20233;50.804;7.126;2023-02-21T01:16:47;9.30;99.90
33955;DHT22;20233;50.804;7.126;2023-02-21T01:19:31;9.30;99.90
33955;DHT22;20233;50.804;7.126;2023-02-21T01:22:16;9.30;99.90
33955;DHT22;20233;50.804;7.126;2023-02-21T01:25:00;9.40;99.90
33955;DHT22;20233;50.804;7.126;2023-02-21T01:27:44;9.40;99.90
33955;DHT22;20233;50.804;7.126;2023-02-21T01:30:28;9.40;99.90
33955;DHT22;20233;50.804;7.126;2023-02-21T01:33:13;9.40;99.90
33955;DHT22;20233;50.804;7.126;2023-02-21T01:35:57;9.30;99.90
33955;DHT22;20233;50.804;7.126;2023-02-21T01:38:41;9.40;99.90
33955;DHT22;20233;50.804;7.126;2023-02-21T01:41:26;9.40;99.90
33955;DHT22;20233;50.804;7.126;2023-02-21T01:44:41;9.00;99.90
33955;DHT22;20233;50.804;7.126;2023-02-21T01:47:26;9.00;99.90
33955;DHT22;20233;50.804;7.126;2023-02-21T01:50:26;9.20;99.90
33955;DHT22;20233;50.804;7.126;2023-02-21T01:53:21;9.10;99.90
33955;DHT22;20233;50.804;7.126;2023-02-21T01:56:07;9.20;99.90
33955;DHT22;20233;50.804;7.126;2023-02-21T01:58:54;9.30;99.90
33955;DHT22;20233;50.804;7.126;2023-02-21T02:02:08;9.30;99.90
33955;DHT22;20233;50.804;7.126;2023-02-21T02:04:54;9.40;99.90
33955;DHT22;20233;50.804;7.126;2023-02-21T02:07:39;9.40;99.90
33955;DHT22;20233;50.804;7.126;2023-02-21T02:10:23;9.40;99.90
33955;DHT22;20233;50.804;7.126;2023-02-21T02:21:56;9.50;99.90
33955;DHT22;20233;50.804;7.126;2023-02-21T02:30:03;9.50;99.90
33955;DHT22;20233;50.804;7.126;2023-02-21T02:35:34;9.50;99.90
33955;DHT22;20233;50.804;7.126;2023-02-21T02:41:11;9.50;99.90
33955;DHT22;20233;50.804;7.126;2023-02-21T02:43:44;9.50;99.90
33955;DHT22;20233;50.804;7.126;2023-02-21T02:46:21;9.50;99.90
33955;DHT22;20233;50.804;7.126;2023-02-21T02:49:02;9.50;99.90
33955;DHT22;20233;50.804;7.126;2023-02-21T02:51:31;9.50;99.90
33955;DHT22;20233;50.804;7.126;2023-02-21T02:53:58;9.50;99.90
33955;DHT22;20233;50.804;7.126;2023-02-21T02:56:24;9.50;99.90
33955;DHT22;20233;50.804;7.126;2023-02-21T02:59:07;9.50;99.90
33955;DHT22;20233;50.804;7.126;2023-02-21T03:07:16;9.60;99.90
33955;DHT22;20233;50.804;7.126;2023-02-21T03:15:24;9.50;99.90
33955;DHT22;20233;50.804;7.126;2023-02-21T03:17:58;9.50;99.90
33955;DHT22;20233;50.804;7.126;2023-02-21T03:20:26;9.50;99.90
33955;DHT22;20233;50.804;7.126;2023-02-21T03:22:54;9.60;99.90
33955;DHT22;20233;50.804;7.126;2023-02-21T03:25:21;9.60;99.90
33955;DHT22;20233;50.804;7.126;2023-02-21T03:27:48;9.60;99.90
33955;DHT22;20233;50.804;7.126;2023-02-21T03:30:16;9.60;99.90
33955;DHT22;20233;50.804;7.126;2023-02-21T03:32:46;9.70;99.90
33955;DHT22;20233;50.804;7.126;2023-02-21T03:35:13;9.70;99.90
33955;DHT22;20233;50.804;7.126;2023-02-21T03:37:44;9.60;99.90
33955;DHT22;20233;50.804;7.126;2023-02-21T03:40:15;9.60;99.90
33955;DHT22;20233;50.804;7.126;2023-02-21T03:42:41;9.60;99.90
33955;DHT22;20233;50.804;7.126;2023-02-21T03:45:07;9.60;99.90
33955;DHT22;20233;50.804;7.126;2023-02-21T03:47:32;9.60;99.90
33955;DHT22;20233;50.804;7.126;2023-02-21T03:49:58;9.60;99.90
33955;DHT22;20233;50.804;7.126;2023-02-21T03:52:23;9.60;99.90
33955;DHT22;20233;50.804;7.126;2023-02-21T03:54:49;9.60;99.90
33955;DHT22;20233;50.804;7.126;2023-02-21T03:57:14;9.60;99.90
33955;DHT22;20233;50.804;7.126;2023-02-21T03:59:40;9.60;99.90
33955;DHT22;20233;50.804;7.126;2023-02-21T04:02:06;9.60;99.90
33955;DHT22;20233;50.804;7.126;2023-02-21T04:04:32;9.60;99.90
33955;DHT22;20233;50.804;7.126;2023-02-21T04:06:58;9.60;99.90
33955;DHT22;20233;50.804;7.126;2023-02-21T04:09:24;9.50;99.90
33955;DHT22;20233;50.804;7.126;2023-02-21T04:11:50;9.50;99.90
33955;DHT22;20233;50.804;7.126;2023-02-21T04:14:16;9.60;99.90
33955;DHT22;20233;50.804;7.126;2023-02-21T04:16:42;9.60;99.90
33955;DHT22;20233;50.804;7.126;2023-02-21T04:19:07;9.60;99.90
33955;DHT22;20233;50.804;7.126;2023-02-21T04:21:33;9.60;99.90
33955;DHT22;20233;50.804;7.126;2023-02-21T04:23:59;9.60;99.90
33955;DHT22;20233;50.804;7.126;2023-02-21T04:26:25;9.60;99.90
33955;DHT22;20233;50.804;7.126;2023-02-21T04:28:51;9.60;99.90
33955;DHT22;20233;50.804;7.126;2023-02-21T04:31:17;9.60;99.90
33955;DHT22;20233;50.804;7.126;2023-02-21T04:33:43;9.60;99.90
33955;DHT22;20233;50.804;7.126;2023-02-21T04:36:09;9.60;99.90
33955;DHT22;20233;50.804;7.126;2023-02-21T04:38:36;9.60;99.90
33955;DHT22;20233;50.804;7.126;2023-02-21T04:41:04;9.60;99.90
33955;DHT22;20233;50.804;7.126;2023-02-21T04:43:29;9.60;99.90
33955;DHT22;20233;50.804;7.126;2023-02-21T04:45:55;9.60;99.90
33955;DHT22;20233;50.804;7.126;2023-02-21T04:48:21;9.60;99.90
33955;DHT22;20233;50.804;7.126;2023-02-21T04:50:46;9.50;99.90
33955;DHT22;20233;50.804;7.126;2023-02-21T04:53:12;9.60;99.90
33955;DHT22;20233;50.804;7.126;2023-02-21T04:55:37;9.50;99.90
33955;DHT22;20233;50.804;7.126;2023-02-21T04:58:03;9.60;99.90
33955;DHT22;20233;50.804;7.126;2023-02-21T05:00:29;9.60;99.90
33955;DHT22;20233;50.804;7.126;2023-02-21T05:02:54;9.60;99.90
33955;DHT22;20233;50.804;7.126;2023-02-21T05:05:20;9.60;99.90
33955;DHT22;20233;50.804;7.126;2023-02-21T05:07:46;9.60;99.90
33955;DHT22;20233;50.804;7.126;2023-02-21T05:10:13;9.50;99.90
33955;DHT22;20233;50.804;7.126;2023-02-21T05:12:39;9.50;99.90
33955;DHT22;20233;50.804;7.126;2023-02-21T05:15:05;9.40;99.90
33955;DHT22;20233;50.804;7.126;2023-02-21T05:17:31;9.50;99.90
33955;DHT22;20233;50.804;7.126;2023-02-21T05:19:57;9.40;99.90
33955;DHT22;20233;50.804;7.126;2023-02-21T05:22:22;9.40;99.90
33955;DHT22;20233;50.804;7.126;2023-02-21T05:24:48;9.50;99.90
33955;DHT22;20233;50.804;7.126;2023-02-21T05:27:18;9.40;99.90
33955;DHT22;20233;50.804;7.126;2023-02-21T05:29:52;9.40;99.90
33955;DHT22;20233;50.804;7.126;2023-02-21T05:32:19;9.40;99.90
33955;DHT22;20233;50.804;7.126;2023-02-21T05:34:45;9.40;99.90
33955;DHT22;20233;50.804;7.126;2023-02-21T05:37:16;9.40;99.90
33955;DHT22;20233;50.804;7.126;2023-02-21T05:39:42;9.50;99.90
33955;DHT22;20233;50.804;7.126;2023-02-21T05:42:08;9.40;99.90
33955;DHT22;20233;50.804;7.126;2023-02-21T05:44:34;9.40;99.90
33955;DHT22;20233;50.804;7.126;2023-02-21T05:46:59;9.40;99.90
33955;DHT22;20233;50.804;7.126;2023-02-21T05:49:27;9.30;99.90
33955;DHT22;20233;50.804;7.126;2023-02-21T05:51:53;9.30;99.90
33955;DHT22;20233;50.804;7.126;2023-02-21T05:54:20;9.30;99.90
33955;DHT22;20233;50.804;7.126;2023-02-21T05:56:48;9.40;99.90
33955;DHT22;20233;50.804;7.126;2023-02-21T05:59:16;9.30;99.90
33955;DHT22;20233;50.804;7.126;2023-02-21T06:01:43;9.30;99.90
33955;DHT22;20233;50.804;7.126;2023-02-21T06:04:08;9.30;99.90
33955;DHT22;20233;50.804;7.126;2023-02-21T06:06:35;9.20;99.90
33955;DHT22;20233;50.804;7.126;2023-02-21T06:09:03;9.20;99.90
33955;DHT22;20233;50.804;7.126;2023-02-21T06:11:32;9.20;99.90
33955;DHT22;20233;50.804;7.126;2023-02-21T06:14:00;9.20;99.90
33955;DHT22;20233;50.804;7.126;2023-02-21T06:16:32;9.20;99.90
33955;DHT22;20233;50.804;7.126;2023-02-21T06:18:59;9.20;99.90
33955;DHT22;20233;50.804;7.126;2023-02-21T06:21:25;9.20;99.90
33955;DHT22;20233;50.804;7.126;2023-02-21T06:23:51;9.10;99.90
33955;DHT22;20233;50.804;7.126;2023-02-21T06:26:18;9.00;99.90
33955;DHT22;20233;50.804;7.126;2023-02-21T06:28:46;9.00;99.90
33955;DHT22;20233;50.804;7.126;2023-02-21T06:31:13;9.10;99.90
33955;DHT22;20233;50.804;7.126;2023-02-21T06:33:41;9.10;99.90
33955;DHT22;20233;50.804;7.126;2023-02-21T06:36:15;9.10;99.90
33955;DHT22;20233;50.804;7.126;2023-02-21T06:38:45;9.00;99.90
33955;DHT22;20233;50.804;7.126;2023-02-21T06:41:15;9.10;99.90
33955;DHT22;20233;50.804;7.126;2023-02-21T06:43:42;9.10;99.90
33955;DHT22;20233;50.804;7.126;2023-02-21T06:46:09;9.10;99.90
33955;DHT22;20233;50.804;7.126;2023-02-21T06:48:36;9.10;99.90
33955;DHT22;20233;50.804;7.126;2023-02-21T06:51:02;9.00;99.90
33955;DHT22;20233;50.804;7.126;2023-02-21T06:53:31;9.10;99.90
33955;DHT22;20233;50.804;7.126;2023-02-21T06:55:58;9.10;99.90
33955;DHT22;20233;50.804;7.126;2023-02-21T06:58:24;9.00;99.90
33955;DHT22;20233;50.804;7.126;2023-02-21T07:00:52;9.10;99.90
33955;DHT22;20233;50.804;7.126;2023-02-21T07:03:19;9.10;99.90
33955;DHT22;20233;50.804;7.126;2023-02-21T07:05:45;9.10;99.90
33955;DHT22;20233;50.804;7.126;2023-02-21T07:08:12;9.10;99.90
33955;DHT22;20233;50.804;7.126;2023-02-21T07:10:38;9.00;99.90
33955;DHT22;20233;50.804;7.126;2023-02-21T07:13:04;9.00;99.90
33955;DHT22;20233;50.804;7.126;2023-02-21T07:15:31;9.00;99.90
33955;DHT22;20233;50.804;7.126;2023-02-21T07:17:57;9.00;99.90
33955;DHT22;20233;50.804;7.126;2023-02-21T07:20:24;9.00;99.90
33955;DHT22;20233;50.804;7.126;2023-02-21T07:22:51;9.00;99.90
33955;DHT22;20233;50.804;7.126;2023-02-21T07:25:21;9.10;99.90
33955;DHT22;20233;50.804;7.126;2023-02-21T07:27:48;9.20;99.90
33955;DHT22;20233;50.804;7.126;2023-02-21T07:30:18;9.20;99.90
33955;DHT22;20233;50.804;7.126;2023-02-21T07:32:45;9.20;99.90
33955;DHT22;20233;50.804;7.126;2023-02-21T07:35:11;9.20;99.90
33955;DHT22;20233;50.804;7.126;2023-02-21T07:37:38;9.30;99.90
33955;DHT22;20233;50.804;7.126;2023-02-21T07:40:05;9.30;99.90
33955;DHT22;20233;50.804;7.126;2023-02-21T07:42:32;9.30;99.90
33955;DHT22;20233;50.804;7.126;2023-02-21T07:44:58;9.30;99.90
33955;DHT22;20233;50.804;7.126;2023-02-21T07:47:25;9.30;99.90
33955;DHT22;20233;50.804;7.126;2023-02-21T07:49:53;9.30;99.90
33955;DHT22;20233;50.804;7.126;2023-02-21T07:52:22;9.30;99.90
33955;DHT22;20233;50.804;7.126;2023-02-21T07:54:49;9.30;99.90
33955;DHT22;20233;50.804;7.126;2023-02-21T07:57:17;9.30;99.90
33955;DHT22;20233;50.804;7.126;2023-02-21T07:59:44;9.30;99.90
33955;DHT22;20233;50.804;7.126;2023-02-21T08:02:13;9.30;99.90
33955;DHT22;20233;50.804;7.126;2023-02-21T08:04:41;9.30;99.90
33955;DHT22;20233;50.804;7.126;2023-02-21T08:07:08;9.30;99.90
33955;DHT22;20233;50.804;7.126;2023-02-21T08:09:35;9.30;99.90
33955;DHT22;20233;50.804;7.126;2023-02-21T08:12:03;9.30;99.90
33955;DHT22;20233;50.804;7.126;2023-02-21T08:14:29;9.30;99.90
33955;DHT22;20233;50.804;7.126;2023-02-21T08:16:56;9.30;99.90
33955;DHT22;20233;50.804;7.126;2023-02-21T08:19:23;9.20;99.90
33955;DHT22;20233;50.804;7.126;2023-02-21T08:21:50;9.20;99.90
33955;DHT22;20233;50.804;7.126;2023-02-21T08:24:18;9.30;99.90
33955;DHT22;20233;50.804;7.126;2023-02-21T08:26:45;9.40;99.90
33955;DHT22;20233;50.804;7.126;2023-02-21T08:29:12;9.40;99.90
33955;DHT22;20233;50.804;7.126;2023-02-21T08:31:41;9.50;99.90
33955;DHT22;20233;50.804;7.126;2023-02-21T08:34:11;9.60;99.90
33955;DHT22;20233;50.804;7.126;2023-02-21T08:36:40;9.50;99.90
33955;DHT22;20233;50.804;7.126;2023-02-21T08:39:08;9.50;99.90
33955;DHT22;20233;50.804;7.126;2023-02-21T08:41:43;9.50;99.90
33955;DHT22;20233;50.804;7.126;2023-02-21T08:44:13;9.50;99.90
33955;DHT22;20233;50.804;7.126;2023-02-21T08:46:41;9.60;99.90
33955;DHT22;20233;50.804;7.126;2023-02-21T08:49:09;9.70;99.90
33955;DHT22;20233;50.804;7.126;2023-02-21T08:51:36;9.80;99.90
33955;DHT22;20233;50.804;7.126;2023-02-21T08:54:03;9.80;99.90
33955;DHT22;20233;50.804;7.126;2023-02-21T08:56:30;9.90;99.90
33955;DHT22;20233;50.804;7.126;2023-02-21T08:58:56;9.90;99.90
33955;DHT22;20233;50.804;7.126;2023-02-21T09:01:29;9.90;99.90
33955;DHT22;20233;50.804;7.126;2023-02-21T09:03:56;9.90;99.90
33955;DHT22;20233;50.804;7.126;2023-02-21T09:06:22;9.90;99.90
33955;DHT22;20233;50.804;7.126;2023-02-21T09:08:49;9.90;99.90
33955;DHT22;20233;50.804;7.126;2023-02-21T09:11:16;9.90;99.90
33955;DHT22;20233;50.804;7.126;2023-02-21T09:13:44;10.00;99.90
33955;DHT22;20233;50.804;7.126;2023-02-21T09:16:11;10.00;99.90
33955;DHT22;20233;50.804;7.126;2023-02-21T09:18:38;10.00;99.90
33955;DHT22;20233;50.804;7.126;2023-02-21T09:21:06;10.20;99.90
33955;DHT22;20233;50.804;7.126;2023-02-21T09:23:32;10.30;99.90
33955;DHT22;20233;50.804;7.126;2023-02-21T09:25:58;10.20;99.90
33955;DHT22;20233;50.804;7.126;2023-02-21T09:28:24;10.30;99.90
33955;DHT22;20233;50.804;7.126;2023-02-21T09:30:51;10.30;99.90
33955;DHT22;20233;50.804;7.126;2023-02-21T09:33:19;10.10;99.90
33955;DHT22;20233;50.804;7.126;2023-02-21T09:35:46;10.30;99.90
33955;DHT22;20233;50.804;7.126;2023-02-21T09:38:12;10.50;99.90
33955;DHT22;20233;50.804;7.126;2023-02-21T09:40:40;10.50;99.90
33955;DHT22;20233;50.804;7.126;2023-02-21T09:43:27;10.60;99.90
33955;DHT22;20233;50.804;7.126;2023-02-21T09:45:59;10.60;99.90
33955;DHT22;20233;50.804;7.126;2023-02-21T09:48:28;10.70;99.90
33955;DHT22;20233;50.804;7.126;2023-02-21T09:50:57;10.80;99.90
33955;DHT22;20233;50.804;7.126;2023-02-21T09:53:37;10.80;99.90
33955;DHT22;20233;50.804;7.126;2023-02-21T09:56:11;10.70;99.90
33955;DHT22;20233;50.804;7.126;2023-02-21T09:58:43;10.70;99.90
33955;DHT22;20233;50.804;7.126;2023-02-21T10:09:37;10.90;99.90
33955;DHT22;20233;50.804;7.126;2023-02-21T10:17:33;11.00;99.90
33955;DHT22;20233;50.804;7.126;2023-02-21T10:20:05;11.00;99.90
33955;DHT22;20233;50.804;7.126;2023-02-21T10:22:39;11.10;99.90
33955;DHT22;20233;50.804;7.126;2023-02-21T10:25:24;11.20;99.90
33955;DHT22;20233;50.804;7.126;2023-02-21T10:27:54;11.30;99.90
33955;DHT22;20233;50.804;7.126;2023-02-21T10:30:42;11.50;99.90
33955;DHT22;20233;50.804;7.126;2023-02-21T10:33:08;11.20;99.90
33955;DHT22;20233;50.804;7.126;2023-02-21T10:35:39;11.40;99.90
33955;DHT22;20233;50.804;7.126;2023-02-21T10:38:06;11.60;99.90
33955;DHT22;20233;50.804;7.126;2023-02-21T10:40:51;11.60;99.90
33955;DHT22;20233;50.804;7.126;2023-02-21T10:46:12;11.90;99.90
33955;DHT22;20233;50.804;7.126;2023-02-21T10:48:42;11.90;99.90
33955;DHT22;20233;50.804;7.126;2023-02-21T10:51:14;12.00;99.90
33955;DHT22;20233;50.804;7.126;2023-02-21T10:53:45;11.90;99.90
33955;DHT22;20233;50.804;7.126;2023-02-21T10:59:01;11.60;99.90
33955;DHT22;20233;50.804;7.126;2023-02-21T11:01:32;11.60;99.90
33955;DHT22;20233;50.804;7.126;2023-02-21T11:04:02;11.50;99.90
33955;DHT22;20233;50.804;7.126;2023-02-21T11:08:57;11.50;99.90
33955;DHT22;20233;50.804;7.126;2023-02-21T11:11:39;11.50;99.90
33955;DHT22;20233;50.804;7.126;2023-02-21T11:16:44;11.70;99.90
33955;DHT22;20233;50.804;7.126;2023-02-21T11:19:14;11.80;99.90
33955;DHT22;20233;50.804;7.126;2023-02-21T11:21:44;12.00;99.90
33955;DHT22;20233;50.804;7.126;2023-02-21T11:24:20;11.90;99.90
33955;DHT22;20233;50.804;7.126;2023-02-21T11:26:52;12.10;99.90
33955;DHT22;20233;50.804;7.126;2023-02-21T11:29:22;12.10;99.90
33955;DHT22;20233;50.804;7.126;2023-02-21T11:31:52;11.70;99.90
33955;DHT22;20233;50.804;7.126;2023-02-21T11:34:21;11.40;99.90
33955;DHT22;20233;50.804;7.126;2023-02-21T11:37:01;11.30;99.90
33955;DHT22;20233;50.804;7.126;2023-02-21T11:39:33;11.20;99.90
33955;DHT22;20233;50.804;7.126;2023-02-21T11:42:02;11.30;99.90
33955;DHT22;20233;50.804;7.126;2023-02-21T11:44:41;11.40;99.90
33955;DHT22;20233;50.804;7.126;2023-02-21T11:47:58;11.50;99.90
33955;DHT22;20233;50.804;7.126;2023-02-21T11:50:31;11.70;99.90
33955;DHT22;20233;50.804;7.126;2023-02-21T11:55:29;11.80;99.90
33955;DHT22;20233;50.804;7.126;2023-02-21T12:00:58;11.90;99.90
33955;DHT22;20233;50.804;7.126;2023-02-21T12:03:59;11.60;99.90
33955;DHT22;20233;50.804;7.126;2023-02-21T12:06:38;12.00;99.90
33955;DHT22;20233;50.804;7.126;2023-02-21T12:12:11;12.10;99.90
33955;DHT22;20233;50.804;7.126;2023-02-21T12:23:00;12.40;99.90
33955;DHT22;20233;50.804;7.126;2023-02-21T12:26:02;12.70;99.90
33955;DHT22;20233;50.804;7.126;2023-02-21T12:34:32;12.90;99.90
33955;DHT22;20233;50.804;7.126;2023-02-21T12:37:32;13.00;99.90
33955;DHT22;20233;50.804;7.126;2023-02-21T12:40:11;13.10;99.90
33955;DHT22;20233;50.804;7.126;2023-02-21T12:51:02;13.10;99.90
33955;DHT22;20233;50.804;7.126;2023-02-21T12:54:05;13.20;99.90
33955;DHT22;20233;50.804;7.126;2023-02-21T12:56:37;13.40;99.90
33955;DHT22;20233;50.804;7.126;2023-02-21T12:59:17;13.60;99.90
33955;DHT22;20233;50.804;7.126;2023-02-21T13:02:11;13.60;99.90
33955;DHT22;20233;50.804;7.126;2023-02-21T13:05:02;13.70;99.90
33955;DHT22;20233;50.804;7.126;2023-02-21T13:08:04;13.70;99.90
33955;DHT22;20233;50.804;7.126;2023-02-21T13:10:49;14.10;99.90
33955;DHT22;20233;50.804;7.126;2023-02-21T13:13:31;13.80;99.90
33955;DHT22;20233;50.804;7.126;2023-02-21T13:16:06;13.70;99.90
33955;DHT22;20233;50.804;7.126;2023-02-21T13:18:43;13.50;99.90
33955;DHT22;20233;50.804;7.126;2023-02-21T13:27:50;13.60;99.90
33955;DHT22;20233;50.804;7.126;2023-02-21T13:30:24;13.70;99.90
33955;DHT22;20233;50.804;7.126;2023-02-21T13:32:56;13.50;99.90
33955;DHT22;20233;50.804;7.126;2023-02-21T13:35:36;13.60;99.90
33955;DHT22;20233;50.804;7.126;2023-02-21T13:38:05;13.90;99.90
33955;DHT22;20233;50.804;7.126;2023-02-21T13:41:01;13.70;99.90
33955;DHT22;20233;50.804;7.126;2023-02-21T13:43:31;13.70;99.90
33955;DHT22;20233;50.804;7.126;2023-02-21T13:57:49;14.20;99.90
33955;DHT22;20233;50.804;7.126;2023-02-21T14:08:31;14.20;99.90
33955;DHT22;20233;50.804;7.126;2023-02-21T14:13:51;13.90;99.90
33955;DHT22;20233;50.804;7.126;2023-02-21T14:16:28;14.10;99.90
33955;DHT22;20233;50.804;7.126;2023-02-21T14:19:23;14.30;99.90
33955;DHT22;20233;50.804;7.126;2023-02-21T14:24:41;13.70;99.90
33955;DHT22;20233;50.804;7.126;2023-02-21T14:32:48;14.00;99.90
33955;DHT22;20233;50.804;7.126;2023-02-21T14:37:53;13.80;99.90
33955;DHT22;20233;50.804;7.126;2023-02-21T14:52:06;14.00;99.90
33955;DHT22;20233;50.804;7.126;2023-02-21T15:05:46;13.90;99.90
33955;DHT22;20233;50.804;7.126;2023-02-21T15:10:46;13.50;99.90
33955;DHT22;20233;50.804;7.126;2023-02-21T15:13:24;13.20;99.90
33955;DHT22;20233;50.804;7.126;2023-02-21T15:15:57;13.20;99.90
33955;DHT22;20233;50.804;7.126;2023-02-21T15:18:31;13.20;99.90
33955;DHT22;20233;50.804;7.126;2023-02-21T15:21:16;13.40;99.90
33955;DHT22;20233;50.804;7.126;2023-02-21T15:23:58;13.40;99.90
33955;DHT22;20233;50.804;7.126;2023-02-21T15:26:30;13.30;99.90
33955;DHT22;20233;50.804;7.126;2023-02-21T15:29:10;13.50;99.90
33955;DHT22;20233;50.804;7.126;2023-02-21T15:31:52;13.40;99.90
33955;DHT22;20233;50.804;7.126;2023-02-21T15:34:24;13.30;99.90
33955;DHT22;20233;50.804;7.126;2023-02-21T15:37:14;13.20;99.90
33955;DHT22;20233;50.804;7.126;2023-02-21T15:39:43;13.20;99.90
33955;DHT22;20233;50.804;7.126;2023-02-21T15:42:13;12.90;99.90
33955;DHT22;20233;50.804;7.126;2023-02-21T15:45:04;12.80;99.90
33955;DHT22;20233;50.804;7.126;2023-02-21T15:47:33;12.60;99.90
33955;DHT22;20233;50.804;7.126;2023-02-21T15:50:44;12.70;99.90
33955;DHT22;20233;50.804;7.126;2023-02-21T15:52:50;12.70;99.90
33955;DHT22;20233;50.804;7.126;2023-02-21T15:57:46;12.60;99.90
33955;DHT22;20233;50.804;7.126;2023-02-21T16:02:50;12.40;99.90
33955;DHT22;20233;50.804;7.126;2023-02-21T16:05:27;12.40;99.90
33955;DHT22;20233;50.804;7.126;2023-02-21T16:07:58;12.20;99.90
33955;DHT22;20233;50.804;7.126;2023-02-21T16:10:24;12.30;99.90
33955;DHT22;20233;50.804;7.126;2023-02-21T16:12:57;12.30;99.90
33955;DHT22;20233;50.804;7.126;2023-02-21T16:15:32;12.20;99.90
33955;DHT22;20233;50.804;7.126;2023-02-21T16:18:01;12.20;99.90
33955;DHT22;20233;50.804;7.126;2023-02-21T16:20:32;12.20;99.90
33955;DHT22;20233;50.804;7.126;2023-02-21T16:26:18;12.00;99.90
33955;DHT22;20233;50.804;7.126;2023-02-21T16:28:45;12.10;99.90
33955;DHT22;20233;50.804;7.126;2023-02-21T16:31:23;12.00;99.90
33955;DHT22;20233;50.804;7.126;2023-02-21T16:33:49;11.80;99.90
33955;DHT22;20233;50.804;7.126;2023-02-21T16:38:49;11.50;99.90
33955;DHT22;20233;50.804;7.126;2023-02-21T16:41:15;11.30;99.90
33955;DHT22;20233;50.804;7.126;2023-02-21T16:43:40;11.20;99.90
33955;DHT22;20233;50.804;7.126;2023-02-21T16:46:06;11.00;99.90
33955;DHT22;20233;50.804;7.126;2023-02-21T16:48:32;11.10;99.90
33955;DHT22;20233;50.804;7.126;2023-02-21T16:51:00;10.80;99.90
33955;DHT22;20233;50.804;7.126;2023-02-21T16:53:28;10.80;99.90
33955;DHT22;20233;50.804;7.126;2023-02-21T16:55:54;10.80;99.90
33955;DHT22;20233;50.804;7.126;2023-02-21T16:58:24;10.80;99.90
33955;DHT22;20233;50.804;7.126;2023-02-21T17:00:52;10.70;99.90
33955;DHT22;20233;50.804;7.126;2023-02-21T17:03:19;10.50;99.90
33955;DHT22;20233;50.804;7.126;2023-02-21T17:05:45;10.50;99.90
33955;DHT22;20233;50.804;7.126;2023-02-21T17:08:12;10.40;99.90
33955;DHT22;20233;50.804;7.126;2023-02-21T17:10:37;10.40;99.90
33955;DHT22;20233;50.804;7.126;2023-02-21T17:13:03;10.30;99.90
33955;DHT22;20233;50.804;7.126;2023-02-21T17:15:29;10.30;99.90
33955;DHT22;20233;50.804;7.126;2023-02-21T17:17:56;10.30;99.90
33955;DHT22;20233;50.804;7.126;2023-02-21T17:20:22;10.20;99.90
33955;DHT22;20233;50.804;7.126;2023-02-21T17:22:48;10.10;99.90
33955;DHT22;20233;50.804;7.126;2023-02-21T17:25:17;10.00;99.90
33955;DHT22;20233;50.804;7.126;2023-02-21T17:27:43;9.90;99.90
33955;DHT22;20233;50.804;7.126;2023-02-21T17:30:10;9.90;99.90
33955;DHT22;20233;50.804;7.126;2023-02-21T17:32:36;10.00;99.90
33955;DHT22;20233;50.804;7.126;2023-02-21T17:35:02;9.90;99.90
33955;DHT22;20233;50.804;7.126;2023-02-21T17:37:28;10.00;99.90
33955;DHT22;20233;50.804;7.126;2023-02-21T17:39:54;9.90;99.90
33955;DHT22;20233;50.804;7.126;2023-02-21T17:42:20;9.80;99.90
33955;DHT22;20233;50.804;7.126;2023-02-21T17:44:46;9.90;99.90
33955;DHT22;20233;50.804;7.126;2023-02-21T17:47:12;9.90;99.90
33955;DHT22;20233;50.804;7.126;2023-02-21T17:49:38;9.60;99.90
33955;DHT22;20233;50.804;7.126;2023-02-21T17:52:04;9.60;99.90
33955;DHT22;20233;50.804;7.126;2023-02-21T17:54:30;9.50;99.90
33955;DHT22;20233;50.804;7.126;2023-02-21T17:56:55;9.40;99.90
33955;DHT22;20233;50.804;7.126;2023-02-21T17:59:22;9.40;99.90
33955;DHT22;20233;50.804;7.126;2023-02-21T18:01:48;9.40;99.90
33955;DHT22;20233;50.804;7.126;2023-02-21T18:04:13;9.40;99.90
33955;DHT22;20233;50.804;7.126;2023-02-21T18:06:40;9.70;99.90
33955;DHT22;20233;50.804;7.126;2023-02-21T18:09:06;9.40;99.90
33955;DHT22;20233;50.804;7.126;2023-02-21T18:11:32;9.40;99.90
33955;DHT22;20233;50.804;7.126;2023-02-21T18:14:00;9.80;99.90
33955;DHT22;20233;50.804;7.126;2023-02-21T18:16:25;9.60;99.90
33955;DHT22;20233;50.804;7.126;2023-02-21T18:18:51;9.90;99.90
33955;DHT22;20233;50.804;7.126;2023-02-21T18:21:17;10.10;99.90
33955;DHT22;20233;50.804;7.126;2023-02-21T18:23:44;9.90;99.90
33955;DHT22;20233;50.804;7.126;2023-02-21T18:26:11;9.50;99.90
33955;DHT22;20233;50.804;7.126;2023-02-21T18:28:37;9.30;99.90
33955;DHT22;20233;50.804;7.126;2023-02-21T18:31:03;9.20;99.90
33955;DHT22;20233;50.804;7.126;2023-02-21T18:33:28;8.90;99.90
33955;DHT22;20233;50.804;7.126;2023-02-21T18:35:55;8.90;99.90
33955;DHT22;20233;50.804;7.126;2023-02-21T18:38:23;8.80;99.90
33955;DHT22;20233;50.804;7.126;2023-02-21T18:40:49;8.80;99.90
33955;DHT22;20233;50.804;7.126;2023-02-21T18:43:18;8.90;99.90
33955;DHT22;20233;50.804;7.126;2023-02-21T18:45:45;9.10;99.90
33955;DHT22;20233;50.804;7.126;2023-02-21T18:48:11;9.00;99.90
33955;DHT22;20233;50.804;7.126;2023-02-21T18:50:36;9.10;99.90
33955;DHT22;20233;50.804;7.126;2023-02-21T18:53:02;9.30;99.90
33955;DHT22;20233;50.804;7.126;2023-02-21T18:55:30;9.30;99.90